createdAt,value
2022-10-11T00:03:34.446Z,344
2022-10-11T00:08:36.091Z,331.42138
2022-10-11T00:13:37.943Z,351.94702
2022-10-11T00:18:39.514Z,363.04762
2022-10-11T00:23:41.307Z,363.04762
2022-10-11T00:28:43.413Z,344
2022-10-11T00:33:45.421Z,338.87179
2022-10-11T00:38:47.333Z,331.42138
2022-10-11T00:43:49.271Z,326.6087
2022-10-11T00:48:51.282Z,333.87342
2022-10-11T00:53:53.210Z,338.87179
2022-10-11T00:58:56.166Z,331.42138
2022-10-11T01:03:57.839Z,333.87342
2022-10-11T01:08:59.841Z,333.87342
2022-10-11T01:14:01.757Z,319.60976
2022-10-11T01:19:03.639Z,312.86228
2022-10-11T01:24:08.580Z,310.66667
2022-10-11T01:29:11.642Z,326.6087
2022-10-11T01:34:13.334Z,308.49704
2022-10-11T01:39:14.974Z,319.60976
2022-10-11T01:44:16.667Z,331.42138
2022-10-11T01:49:18.179Z,312.86228
2022-10-11T01:54:19.963Z,298.02299
2022-10-11T01:59:22.028Z,292.0226
2022-10-11T02:04:23.502Z,290.06742
2022-10-11T02:09:25.131Z,278.78261
2022-10-11T02:14:26.801Z,276.97297
2022-10-11T02:19:28.276Z,284.33149
2022-10-11T02:24:29.949Z,280.61202
2022-10-11T02:29:32.660Z,294
2022-10-11T02:34:34.134Z,282.46154
2022-10-11T02:39:35.877Z,264.83333
2022-10-11T02:44:37.774Z,266.51309
2022-10-11T02:49:39.465Z,250.46766
2022-10-11T02:54:41.070Z,241.58454
2022-10-11T02:59:43.632Z,237.33333
2022-10-11T03:04:45.313Z,238.73684
2022-10-11T03:09:46.836Z,234.56604
2022-10-11T03:14:48.679Z,227.87097
2022-10-11T03:19:50.172Z,224
2022-10-11T03:24:51.827Z,210.66667
2022-10-11T03:29:53.605Z,203.91561
2022-10-11T03:34:55.311Z,191.38956
2022-10-11T03:39:56.984Z,180.92308
2022-10-11T03:44:58.719Z,172.14815
2022-10-11T03:50:00.492Z,153.52381
2022-10-11T03:55:02.589Z,135.30435
2022-10-11T04:00:05.358Z,124.11696
2022-10-11T04:05:07.383Z,119.49858
2022-10-11T04:10:09.172Z,116.06704
2022-10-11T04:15:11.284Z,113.69697
2022-10-11T04:20:13.029Z,111.84741
2022-10-11T04:25:14.843Z,112.30601
2022-10-11T04:30:17.428Z,114.63712
2022-10-11T04:35:19.225Z,118.0113
2022-10-11T04:40:21.209Z,110.93767
2022-10-11T04:45:23.221Z,106.53298
2022-10-11T04:50:25.380Z,110.48649
2022-10-11T04:55:27.427Z,109.14745
2022-10-11T05:00:29.889Z,115.58774
2022-10-11T05:05:31.623Z,121.52161
2022-10-11T05:10:33.401Z,127.8806
2022-10-11T05:15:35.303Z,130.10272
2022-10-11T05:20:36.820Z,136.5
2022-10-11T05:25:38.464Z,142.07074
2022-10-11T05:30:40.608Z,147.97351
2022-10-11T05:35:42.214Z,149.33333
2022-10-11T05:40:43.705Z,145.30719
2022-10-11T05:45:45.727Z,141.4359
2022-10-11T05:50:47.552Z,134.71207
2022-10-11T05:55:49.478Z,147.30033
2022-10-11T06:00:52.023Z,145.96721
2022-10-11T06:05:56.911Z,150.71141
2022-10-11T06:10:59.420Z,160.90141
2022-10-11T06:16:01.798Z,164.78853
2022-10-11T06:21:03.818Z,171.30627
2022-10-11T06:26:06.367Z,169.64103
2022-10-11T06:31:09.294Z,169.64103
2022-10-11T06:36:11.109Z,167.18841
2022-10-11T06:41:12.902Z,172.14815
2022-10-11T06:46:15.037Z,171.30627
2022-10-11T06:51:17.155Z,180.01533
2022-10-11T06:56:18.959Z,177.33333
2022-10-11T07:01:21.862Z,175.57895
2022-10-11T07:06:24.070Z,179.1145
2022-10-11T07:11:25.842Z,173.85075
2022-10-11T07:16:28.036Z,199.60166
2022-10-11T07:21:29.560Z,196.45902
2022-10-11T07:26:36.769Z,210.66667
2022-10-11T07:31:40.569Z,205.01695
2022-10-11T07:36:42.143Z,273.41176
2022-10-11T07:41:46.081Z,275.1828
2022-10-11T07:46:48.122Z,296
2022-10-11T07:51:49.873Z,312.86228
2022-10-11T07:56:51.719Z,321.91411
2022-10-11T08:01:53.658Z,341.41935
2022-10-11T08:06:55.180Z,321.91411
2022-10-11T08:11:56.954Z,371.77778
2022-10-11T08:16:58.819Z,387.16547
2022-10-11T08:22:00.499Z,417.84615
2022-10-11T08:27:02.111Z,494
2022-10-11T08:32:04.705Z,530.66667
2022-10-11T08:37:06.174Z,599.31915
2022-10-11T08:42:07.939Z,668.70588
2022-10-11T08:47:09.718Z,686.16867
2022-10-11T08:52:11.455Z,765.33333
2022-10-11T08:57:13.048Z,877.33333
2022-10-11T09:02:15.529Z,970.66667
2022-10-11T09:07:17.376Z,836.75362
2022-10-11T09:12:19.001Z,988.0678
2022-10-11T09:17:20.772Z,1024.70175
2022-10-11T09:22:25.794Z,863.40299
2022-10-11T09:27:57.295Z,1106.26415
2022-10-11T09:33:05.052Z,988.0678
2022-10-11T09:38:06.854Z,1128.61538
2022-10-11T09:43:08.818Z,1064
2022-10-11T09:48:10.630Z,1044
2022-10-11T09:53:12.649Z,1176
2022-10-11T09:58:14.759Z,1128.61538
2022-10-11T10:03:16.951Z,1064
2022-10-11T10:08:18.934Z,1376.55814
2022-10-11T10:13:20.741Z,1376.55814
2022-10-11T10:18:22.911Z,1151.84314
2022-10-11T10:23:24.887Z,1151.84314
2022-10-11T10:28:26.728Z,1484
2022-10-11T10:33:29.076Z,1344
2022-10-11T10:38:30.550Z,1254.6383
2022-10-11T10:43:32.348Z,1254.6383
2022-10-11T10:48:53.759Z,1484
2022-10-11T10:54:14.114Z,1565.05263
2022-10-11T10:59:16.155Z,1344
2022-10-11T11:04:18.602Z,1376.55814
2022-10-11T11:09:20.432Z,1227.33333
2022-10-11T11:14:22.501Z,1446.43902
2022-10-11T11:19:24.591Z,1755.76471
2022-10-11T11:24:26.259Z,1655.11111
2022-10-11T11:29:28.038Z,1376.55814
2022-10-11T11:34:30.288Z,1523.48718
2022-10-11T11:39:32.040Z,1997.33333
2022-10-11T11:44:33.696Z,1755.76471
2022-10-11T11:49:35.316Z,1565.05263
2022-10-11T11:54:37.004Z,1869
2022-10-11T11:59:38.587Z,1810.66667
2022-10-11T12:04:40.555Z,2622.26087
2022-10-11T12:09:41.995Z,1810.66667
2022-10-11T12:14:43.470Z,1755.76471
2022-10-11T12:19:45.622Z,1869
2022-10-11T12:24:47.545Z,1655.11111
2022-10-11T12:29:49.306Z,2313.23077
2022-10-11T12:34:51.390Z,2225.48148
2022-10-11T12:39:53.038Z,1704
2022-10-11T12:44:54.953Z,2144
2022-10-11T12:49:57.053Z,2877.33333
2022-10-11T12:54:58.962Z,2068.13793
2022-10-11T13:00:00.812Z,1810.66667
2022-10-11T13:05:03.090Z,1484
2022-10-11T13:10:04.848Z,1254.6383
2022-10-11T13:15:06.780Z,1312.88889
2022-10-11T13:20:08.834Z,1810.66667
2022-10-11T13:25:10.856Z,1931.09677
2022-10-11T13:30:12.907Z,1608.86486
2022-10-11T13:35:14.985Z,1484
2022-10-11T13:40:16.823Z,1283.13043
2022-10-11T13:45:18.572Z,1484
2022-10-11T13:50:20.643Z,1376.55814
2022-10-11T13:55:22.523Z,1484
2022-10-11T14:00:24.584Z,1312.88889
2022-10-11T14:53:31.116Z,714
2022-10-11T14:58:32.918Z,606.36559
2022-10-11T15:03:34.808Z,811.60563
2022-10-11T15:08:36.623Z,695.21951
2022-10-11T15:13:38.512Z,776.43243
2022-10-11T15:18:40.468Z,704.49383
2022-10-11T15:23:42.259Z,754.52632
2022-10-11T15:28:43.869Z,754.52632
2022-10-11T15:33:45.439Z,677.33333
2022-10-11T15:38:47.344Z,811.60563
2022-10-11T15:43:49.045Z,599.31915
2022-10-11T15:48:50.552Z,695.21951
2022-10-11T15:53:52.557Z,566.22222
2022-10-11T15:58:54.280Z,212.99563
2022-10-11T16:03:55.966Z,393.63504
2022-10-11T16:08:57.491Z,417.84615
2022-10-11T16:13:59.280Z,384
2022-10-11T16:19:00.909Z,365.91781
2022-10-11T16:24:02.876Z,310.66667
2022-10-11T16:29:04.499Z,238.73684
2022-10-11T16:34:06.165Z,280.61202
2022-10-11T16:39:07.906Z,276.97297
2022-10-11T16:44:09.636Z,280.61202
2022-10-11T16:49:11.272Z,222.73303
2022-10-11T16:54:16.608Z,198.54545
2022-10-11T16:59:21.060Z,217.77778
2022-10-11T17:04:22.776Z,221.47748
2022-10-11T17:09:24.545Z,226.56881
2022-10-11T17:14:26.238Z,172.14815
2022-10-11T17:19:27.939Z,194.4065
2022-10-11T17:24:29.867Z,200.66667
2022-10-11T17:29:31.391Z,210.66667
2022-10-11T17:34:33.142Z,210.66667
2022-10-11T17:39:34.755Z,219
2022-10-11T17:44:36.394Z,193.39271
2022-10-11T17:49:38.019Z,184.625
2022-10-11T17:54:39.908Z,160.14035
2022-10-11T17:59:41.397Z,168.81752
2022-10-11T18:04:42.888Z,189.41833
2022-10-11T18:09:44.706Z,192.3871
2022-10-11T18:14:46.149Z,188.44444
2022-10-11T18:19:47.815Z,176.45283
2022-10-11T18:24:49.934Z,189.41833
2022-10-11T18:29:51.439Z,205.01695
2022-10-11T18:34:53.155Z,219
2022-10-11T18:39:54.664Z,212.99563
2022-10-11T18:44:56.459Z,195.42857
2022-10-11T18:49:58.133Z,194.4065
2022-10-11T18:54:59.965Z,185.56863
2022-10-11T19:00:11.718Z,182.75969
2022-10-11T19:05:31.818Z,175.57895
2022-10-11T19:10:33.284Z,172.99628
2022-10-11T19:15:34.733Z,168.81752
2022-10-11T19:20:36.699Z,168
2022-10-11T19:25:38.441Z,164
2022-10-11T19:30:40.108Z,162.43972
2022-10-11T19:35:41.828Z,164
2022-10-11T19:40:43.609Z,157.88889
2022-10-11T19:45:45.380Z,157.88889
2022-10-11T19:50:47.131Z,164.78853
2022-10-11T19:55:49.339Z,154.23891
2022-10-11T20:00:50.923Z,154.9589
2022-10-11T20:05:52.663Z,154.9589
2022-10-11T20:10:54.424Z,175.57895
2022-10-11T20:15:56.180Z,186.51969
2022-10-11T20:20:57.935Z,176.45283
2022-10-11T20:25:59.876Z,181.83784
2022-10-11T20:31:01.363Z,178.22053
2022-10-11T20:36:03.119Z,174.71161
2022-10-11T20:41:05.178Z,163.21708
2022-10-11T20:46:06.930Z,160.14035
2022-10-11T20:51:08.739Z,155.68385
2022-10-11T20:56:10.925Z,162.43972
2022-10-11T21:01:12.792Z,160.90141
2022-10-11T21:06:14.605Z,160.90141
2022-10-11T21:11:16.662Z,146.63158
2022-10-11T21:16:18.125Z,142.70968
2022-10-11T21:21:19.726Z,138.32177
2022-10-11T21:26:21.545Z,123.59184
2022-10-11T21:31:23.225Z,116.06704
2022-10-11T21:36:24.912Z,116.54902
2022-10-11T21:41:26.404Z,115.11111
2022-10-11T21:46:47.651Z,120.5043
2022-10-11T21:52:03.721Z,126.78932
2022-10-11T21:57:05.713Z,136.5
2022-10-11T22:02:07.386Z,140.17834
2022-10-11T22:07:09.272Z,143.35275
2022-10-11T22:12:11.035Z,146.63158
2022-10-11T22:17:12.752Z,164
2022-10-11T22:22:14.477Z,179.1145
2022-10-11T22:27:16.120Z,160.14035
2022-10-11T22:32:17.584Z,152.81356
2022-10-11T22:37:19.161Z,150.71141
2022-10-11T22:42:24.134Z,145.96721
2022-10-11T22:47:28.519Z,145.30719
2022-10-11T22:52:30.232Z,147.30033
2022-10-11T22:57:32.345Z,153.52381
2022-10-11T23:02:34.195Z,171.30627
2022-10-11T23:07:36.288Z,178.22053
2022-10-11T23:12:38.093Z,183.68872
2022-10-11T23:17:39.974Z,187.47826
2022-10-11T23:22:41.718Z,184.625
2022-10-11T23:27:43.700Z,182.75969
2022-10-11T23:32:45.110Z,175.57895
2022-10-11T23:37:46.616Z,181.83784
2022-10-11T23:42:48.226Z,185.56863
2022-10-11T23:47:49.725Z,178.22053
2022-10-11T23:52:51.205Z,179.1145
2022-10-11T23:57:53.235Z,189.41833
